createdAt,value
2023-08-08T00:04:38.715Z,15.37
2023-08-08T00:14:41.723Z,15.43
2023-08-08T00:24:44.733Z,15.46
2023-08-08T00:34:47.799Z,15.46
2023-08-08T00:44:50.853Z,15.43
2023-08-08T00:54:54.115Z,15.36
2023-08-08T01:04:58.206Z,15.30
2023-08-08T01:15:01.836Z,15.20
2023-08-08T01:25:07.442Z,15.03
2023-08-08T01:35:11.977Z,14.82
2023-08-08T01:45:15.851Z,14.67
2023-08-08T01:55:19.356Z,14.54
2023-08-08T02:05:22.736Z,14.40
2023-08-08T02:15:25.862Z,14.26
2023-08-08T02:25:28.951Z,14.16
2023-08-08T02:35:32.010Z,14.07
2023-08-08T02:45:35.216Z,14.00
2023-08-08T02:55:38.433Z,13.96
2023-08-08T03:05:41.783Z,13.91
2023-08-08T03:15:44.917Z,13.86
2023-08-08T03:25:48.200Z,13.84
2023-08-08T03:35:51.693Z,13.78
2023-08-08T03:45:55.204Z,13.70
2023-08-08T03:55:58.284Z,13.61
2023-08-08T04:06:02.685Z,13.55
2023-08-08T04:16:05.878Z,13.51
2023-08-08T04:26:08.916Z,13.56
2023-08-08T04:36:12.430Z,13.75
2023-08-08T04:46:15.514Z,14.08
2023-08-08T04:56:18.659Z,14.40
2023-08-08T05:06:21.683Z,14.57
2023-08-08T05:16:25.160Z,14.76
2023-08-08T05:26:28.335Z,14.91
2023-08-08T05:36:31.310Z,15.07
2023-08-08T05:46:34.535Z,15.22
2023-08-08T05:56:38.396Z,15.26
2023-08-08T06:06:41.903Z,15.49
2023-08-08T06:16:44.930Z,15.78
2023-08-08T06:26:47.952Z,15.99
2023-08-08T06:36:50.982Z,16.23
2023-08-08T06:46:54.039Z,16.37
2023-08-08T06:56:58.880Z,16.50
2023-08-08T07:07:03.924Z,16.67
2023-08-08T07:17:07.256Z,16.81
2023-08-08T07:27:10.287Z,16.96
2023-08-08T07:37:14.740Z,17.15
2023-08-08T07:47:17.798Z,17.19
2023-08-08T07:57:20.763Z,17.20
2023-08-08T08:07:24.324Z,17.77
2023-08-08T08:17:28.409Z,18.22
2023-08-08T08:27:31.668Z,18.38
2023-08-08T08:37:35.577Z,18.63
2023-08-08T08:47:42.174Z,18.79
2023-08-08T08:57:46.452Z,18.83
2023-08-08T09:07:49.463Z,18.94
2023-08-08T09:17:53.115Z,19.14
2023-08-08T09:27:56.937Z,19.37
2023-08-08T09:38:00.014Z,19.50
2023-08-08T09:48:03.106Z,19.61
2023-08-08T09:58:08.703Z,20.06
2023-08-08T10:08:12.193Z,19.90
2023-08-08T10:18:28.626Z,19.52
2023-08-08T10:28:34.450Z,19.13
2023-08-08T10:38:45.532Z,19.19
2023-08-08T10:48:52.999Z,19.25
2023-08-08T10:58:55.946Z,19.69
2023-08-08T11:08:59.287Z,19.64
2023-08-08T11:19:02.923Z,19.45
2023-08-08T11:29:06.883Z,19.34
2023-08-08T11:39:11.124Z,19.57
2023-08-08T11:49:17.630Z,19.95
2023-08-08T11:59:21.557Z,19.99
2023-08-08T12:09:29.120Z,20.43
2023-08-08T12:19:32.192Z,21.05
2023-08-08T12:29:35.297Z,21.94
2023-08-08T12:39:38.299Z,23.07
2023-08-08T12:49:41.238Z,22.62
2023-08-08T12:59:44.264Z,21.77
2023-08-08T13:09:47.363Z,21.32
2023-08-08T13:19:50.326Z,21.28
2023-08-08T13:29:53.471Z,21.62
2023-08-08T13:39:56.450Z,21.50
2023-08-08T13:49:59.440Z,21.11
2023-08-08T14:00:03.505Z,21.12
2023-08-08T14:10:11.620Z,21.88
2023-08-08T14:20:14.929Z,21.90
2023-08-08T14:30:18.214Z,22.19
2023-08-08T14:40:21.184Z,22.14
2023-08-08T14:50:24.137Z,22.27
2023-08-08T15:00:27.318Z,22.33
2023-08-08T15:10:30.357Z,24.19
2023-08-08T15:20:33.369Z,25.39
2023-08-08T15:30:36.404Z,24.63
2023-08-08T15:40:41.442Z,24.03
2023-08-08T15:50:44.924Z,23.55
2023-08-08T16:00:47.979Z,23.75
2023-08-08T16:10:51.045Z,23.28
2023-08-08T16:20:54.043Z,23.33
2023-08-08T16:30:58.509Z,22.50
2023-08-08T16:41:01.621Z,21.96
2023-08-08T16:51:04.711Z,21.77
2023-08-08T17:01:08.074Z,21.52
2023-08-08T17:11:11.384Z,21.31
2023-08-08T17:21:14.501Z,21.08
2023-08-08T17:31:18.136Z,20.80
2023-08-08T17:41:21.094Z,20.53
2023-08-08T17:51:24.103Z,20.15
2023-08-08T18:01:27.337Z,19.77
2023-08-08T18:11:30.341Z,19.42
2023-08-08T18:21:33.410Z,18.15
2023-08-08T18:31:36.384Z,17.27
2023-08-08T18:41:39.388Z,16.88
2023-08-08T18:51:42.331Z,16.65
2023-08-08T19:01:45.432Z,16.51
2023-08-08T19:11:48.427Z,15.75
2023-08-08T19:21:53.406Z,14.76
2023-08-08T19:31:56.376Z,14.57
2023-08-08T19:42:00.389Z,14.56
2023-08-08T19:52:03.903Z,14.57
2023-08-08T20:02:07.445Z,14.65
2023-08-08T20:12:10.462Z,14.72
2023-08-08T20:22:13.403Z,14.79
2023-08-08T20:32:16.432Z,14.88
2023-08-08T20:42:19.408Z,14.92
2023-08-08T20:52:22.977Z,14.95
2023-08-08T21:02:26.159Z,15.02
2023-08-08T21:12:29.200Z,15.17
2023-08-08T21:22:32.252Z,15.20
2023-08-08T21:32:35.473Z,15.26
2023-08-08T21:42:39.041Z,15.37
2023-08-08T21:52:42.034Z,15.41
2023-08-08T22:02:45.078Z,15.38
2023-08-08T22:12:54.032Z,15.33
2023-08-08T22:23:02.966Z,15.27
2023-08-08T22:33:15.642Z,15.23
2023-08-08T22:43:18.598Z,15.29
2023-08-08T22:53:21.651Z,15.39
2023-08-08T23:03:24.703Z,15.44
2023-08-08T23:13:27.810Z,15.42
2023-08-08T23:23:30.810Z,15.35
2023-08-08T23:33:33.830Z,15.25
2023-08-08T23:43:36.801Z,15.23
2023-08-08T23:53:39.867Z,15.28
